createdAt,value
2023-04-26T00:00:17.909Z,28.3
2023-04-26T00:01:19.517Z,28.3
2023-04-26T00:02:21.464Z,28.3
2023-04-26T00:03:23.843Z,28.3
2023-04-26T00:04:26.718Z,28.3
2023-04-26T00:05:29.419Z,28.3
2023-04-26T00:06:31.397Z,28.3
2023-04-26T00:07:32.956Z,28.3
2023-04-26T00:08:34.611Z,28.3
2023-04-26T00:09:36.217Z,28.3
2023-04-26T00:10:37.835Z,28.3
2023-04-26T00:11:39.474Z,28.3
2023-04-26T00:12:41.071Z,28.3
2023-04-26T00:13:42.689Z,28.3
2023-04-26T00:14:44.359Z,28.3
2023-04-26T00:15:46.003Z,28.4
2023-04-26T00:16:47.803Z,28.4
2023-04-26T00:17:50.152Z,28.4
2023-04-26T00:18:52.471Z,28.3
2023-04-26T00:19:55.418Z,28.3
2023-04-26T00:20:57.029Z,28.3
2023-04-26T00:21:58.692Z,28.3
2023-04-26T00:23:00.303Z,28.3
2023-04-26T00:24:02.002Z,28.3
2023-04-26T00:25:03.637Z,28.3
2023-04-26T00:26:05.258Z,28.3
2023-04-26T00:27:06.901Z,28.3
2023-04-26T00:28:08.532Z,28.3
2023-04-26T00:29:10.163Z,28.3
2023-04-26T00:30:11.759Z,28.3
2023-04-26T00:31:13.418Z,28.2
2023-04-26T00:32:15.157Z,28.2
2023-04-26T00:33:16.800Z,28.2
2023-04-26T00:34:18.363Z,28.2
2023-04-26T00:35:20.019Z,28.2
2023-04-26T00:36:21.672Z,28.2
2023-04-26T00:37:23.275Z,28.2
2023-04-26T00:38:24.945Z,28.2
2023-04-26T00:39:26.538Z,28.2
2023-04-26T00:40:28.144Z,28.2
2023-04-26T00:41:29.766Z,28.1
2023-04-26T00:42:31.351Z,28.2
2023-04-26T00:43:33.006Z,28.1
2023-04-26T00:44:34.640Z,28.1
2023-04-26T00:45:36.321Z,28.1
2023-04-26T00:46:38.045Z,28.2
2023-04-26T00:47:39.782Z,28.1
2023-04-26T00:48:41.959Z,28.1
2023-04-26T00:49:43.555Z,28.2
2023-04-26T00:50:45.150Z,28.2
2023-04-26T00:51:46.905Z,28.2
2023-04-26T00:52:48.577Z,28.2
2023-04-26T00:53:50.166Z,28.2
2023-04-26T00:54:51.758Z,28.1
2023-04-26T00:55:53.477Z,28.1
2023-04-26T00:56:55.220Z,28
2023-04-26T00:57:56.897Z,28
2023-04-26T00:58:58.551Z,28
2023-04-26T01:00:00.274Z,28
2023-04-26T01:01:02.020Z,28
2023-04-26T01:02:03.833Z,28
2023-04-26T01:03:06.310Z,27.9
2023-04-26T01:04:09.148Z,28
2023-04-26T01:05:11.287Z,28
2023-04-26T01:06:12.878Z,28
2023-04-26T01:07:14.663Z,27.9
2023-04-26T01:08:16.260Z,27.9
2023-04-26T01:09:17.855Z,27.9
2023-04-26T01:10:19.488Z,27.9
2023-04-26T01:11:21.062Z,27.9
2023-04-26T01:12:22.663Z,27.8
2023-04-26T01:13:24.270Z,27.9
2023-04-26T01:14:25.917Z,27.8
2023-04-26T01:15:27.514Z,27.8
2023-04-26T01:16:29.143Z,27.8
2023-04-26T01:17:31.258Z,27.8
2023-04-26T01:18:33.100Z,27.8
2023-04-26T01:19:34.776Z,27.8
2023-04-26T01:20:36.365Z,27.8
2023-04-26T01:21:37.967Z,27.8
2023-04-26T01:22:39.686Z,27.7
2023-04-26T01:23:41.344Z,27.7
2023-04-26T01:24:46.159Z,27.7
2023-04-26T01:25:47.754Z,27.8
2023-04-26T01:26:49.315Z,27.7
2023-04-26T01:27:50.956Z,27.7
2023-04-26T01:28:53.198Z,27.7
2023-04-26T01:29:55.391Z,27.7
2023-04-26T01:30:57.205Z,27.7
2023-04-26T01:31:59.037Z,27.6
2023-04-26T01:33:00.775Z,27.7
2023-04-26T01:34:02.696Z,27.6
2023-04-26T01:35:04.372Z,27.6
2023-04-26T01:36:05.995Z,27.5
2023-04-26T01:37:07.580Z,27.5
2023-04-26T01:38:09.441Z,27.6
2023-04-26T01:39:11.080Z,27.6
2023-04-26T01:40:12.653Z,27.6
2023-04-26T01:41:14.261Z,27.5
2023-04-26T01:42:16.004Z,27.5
2023-04-26T01:43:17.598Z,27.5
2023-04-26T01:44:19.200Z,27.5
2023-04-26T01:45:20.800Z,27.5
2023-04-26T01:46:22.453Z,27.4
2023-04-26T01:47:24.664Z,27.5
2023-04-26T01:48:26.496Z,27.5
2023-04-26T01:49:28.133Z,27.5
2023-04-26T01:50:29.802Z,27.5
2023-04-26T01:51:31.514Z,27.5
2023-04-26T01:52:33.162Z,27.4
2023-04-26T01:53:34.811Z,27.4
2023-04-26T01:54:36.392Z,27.4
2023-04-26T01:55:38.065Z,27.3
2023-04-26T01:56:39.680Z,27.2
2023-04-26T01:57:41.361Z,27.3
2023-04-26T01:58:42.985Z,27.2
2023-04-26T01:59:44.592Z,27.3
2023-04-26T02:00:46.183Z,27.2
2023-04-26T02:01:47.914Z,27.2
2023-04-26T02:02:49.969Z,27.2
2023-04-26T02:03:52.064Z,27.1
2023-04-26T02:04:53.944Z,27.1
2023-04-26T02:05:55.755Z,27.2
2023-04-26T02:06:57.434Z,27.2
2023-04-26T02:07:59.044Z,27.2
2023-04-26T02:09:00.840Z,27.2
2023-04-26T02:10:02.482Z,27.2
2023-04-26T02:11:04.088Z,27.2
2023-04-26T02:12:05.705Z,27.1
2023-04-26T02:13:07.372Z,27.1
2023-04-26T02:14:09.270Z,27
2023-04-26T02:15:10.939Z,27.1
2023-04-26T02:16:12.781Z,27
2023-04-26T02:17:14.639Z,27
2023-04-26T02:18:16.276Z,27.1
2023-04-26T02:19:17.914Z,27
2023-04-26T02:20:19.498Z,27
2023-04-26T02:21:21.112Z,27
2023-04-26T02:22:22.719Z,26.9
2023-04-26T02:23:24.476Z,26.9
2023-04-26T02:24:26.363Z,26.8
2023-04-26T02:25:27.957Z,26.8
2023-04-26T02:26:29.655Z,26.9
2023-04-26T02:27:31.295Z,26.8
2023-04-26T02:28:32.994Z,26.8
2023-04-26T02:29:44.896Z,26.8
2023-04-26T02:30:46.705Z,26.7
2023-04-26T02:31:48.450Z,26.8
2023-04-26T02:32:50.686Z,26.8
2023-04-26T02:33:52.352Z,26.8
2023-04-26T02:34:54.252Z,26.7
2023-04-26T02:35:55.858Z,26.7
2023-04-26T02:36:57.519Z,26.7
2023-04-26T02:37:59.183Z,26.8
2023-04-26T02:39:00.812Z,26.8
2023-04-26T02:40:02.492Z,26.7
2023-04-26T02:41:04.089Z,26.7
2023-04-26T02:42:05.800Z,26.6
2023-04-26T02:43:07.386Z,26.7
2023-04-26T02:44:09.076Z,26.7
2023-04-26T02:45:10.677Z,26.7
2023-04-26T02:46:12.326Z,26.7
2023-04-26T02:47:14.134Z,26.7
2023-04-26T02:48:15.711Z,26.7
2023-04-26T02:49:17.480Z,26.6
2023-04-26T02:50:19.211Z,26.6
2023-04-26T02:51:20.864Z,26.7
2023-04-26T02:52:22.494Z,26.6
2023-04-26T02:53:24.061Z,26.6
2023-04-26T02:54:25.654Z,26.6
2023-04-26T02:55:27.378Z,26.7
2023-04-26T02:56:29.098Z,26.7
2023-04-26T02:57:30.686Z,26.7
2023-04-26T02:58:32.268Z,26.7
2023-04-26T02:59:33.901Z,26.7
2023-04-26T03:00:35.691Z,26.7
2023-04-26T03:01:37.727Z,26.7
2023-04-26T03:02:39.754Z,26.7
2023-04-26T03:03:42.240Z,26.7
2023-04-26T03:04:44.469Z,26.7
2023-04-26T03:05:46.153Z,26.7
2023-04-26T03:06:47.810Z,26.8
2023-04-26T03:07:49.601Z,26.7
2023-04-26T03:08:51.768Z,26.8
2023-04-26T03:09:54.588Z,26.8
2023-04-26T03:10:56.294Z,26.8
2023-04-26T03:11:57.948Z,26.8
2023-04-26T03:12:59.577Z,26.9
2023-04-26T03:14:01.195Z,26.9
2023-04-26T03:15:02.790Z,26.9
2023-04-26T03:16:04.478Z,27
2023-04-26T03:17:06.161Z,27
2023-04-26T03:18:08.106Z,27
2023-04-26T03:19:10.191Z,27
2023-04-26T03:20:11.807Z,27
2023-04-26T03:21:13.582Z,27.1
2023-04-26T03:22:15.149Z,27.1
2023-04-26T03:23:16.823Z,27
2023-04-26T03:24:18.567Z,27
2023-04-26T03:25:20.201Z,27
2023-04-26T03:26:22.092Z,27
2023-04-26T03:27:23.729Z,27
2023-04-26T03:28:25.338Z,27
2023-04-26T03:29:26.994Z,27
2023-04-26T03:30:28.638Z,27.1
2023-04-26T03:31:30.296Z,27.1
2023-04-26T03:32:32.129Z,27.1
2023-04-26T03:33:33.849Z,27.1
2023-04-26T03:34:35.480Z,27.1
2023-04-26T03:35:37.081Z,27.1
2023-04-26T03:36:38.875Z,27.1
2023-04-26T03:37:40.488Z,27.1
2023-04-26T03:38:42.103Z,27.1
2023-04-26T03:39:43.733Z,27.1
2023-04-26T03:40:45.313Z,27.1
2023-04-26T03:41:47.024Z,27.1
2023-04-26T03:42:48.639Z,27.1
2023-04-26T03:43:50.250Z,27.1
2023-04-26T03:44:51.852Z,27.1
2023-04-26T03:45:53.564Z,27.1
2023-04-26T03:46:55.314Z,27.2
2023-04-26T03:47:57.150Z,27.2
2023-04-26T03:48:59.037Z,27.1
2023-04-26T03:50:00.953Z,27.1
2023-04-26T03:51:02.586Z,27.1
2023-04-26T03:52:04.260Z,27.1
2023-04-26T03:53:05.894Z,27.1
2023-04-26T03:54:07.515Z,27.1
2023-04-26T03:55:09.218Z,27.1
2023-04-26T03:56:10.819Z,27.1
2023-04-26T03:57:12.643Z,27.1
2023-04-26T03:58:14.258Z,27.1
2023-04-26T03:59:15.903Z,27.1
2023-04-26T04:00:17.493Z,27.1
2023-04-26T04:01:19.116Z,27
2023-04-26T04:02:20.965Z,27
2023-04-26T04:03:23.518Z,27
2023-04-26T04:04:26.531Z,27.1
2023-04-26T04:05:29.159Z,27.1
2023-04-26T04:06:31.085Z,27.1
2023-04-26T04:07:32.725Z,27.1
2023-04-26T04:08:34.381Z,27.1
2023-04-26T04:09:35.993Z,27.1
2023-04-26T04:10:37.602Z,27.2
2023-04-26T04:11:39.235Z,27.1
2023-04-26T04:12:40.940Z,27.2
2023-04-26T04:13:42.601Z,27.2
2023-04-26T04:14:44.244Z,27.2
2023-04-26T04:15:46.030Z,27.2
2023-04-26T04:16:47.709Z,27.2
2023-04-26T04:17:49.430Z,27.3
2023-04-26T04:18:51.493Z,27.3
2023-04-26T04:19:53.880Z,27.3
2023-04-26T04:20:55.526Z,27.3
2023-04-26T04:21:57.192Z,27.4
2023-04-26T04:22:58.878Z,27.4
2023-04-26T04:24:00.498Z,27.5
2023-04-26T04:25:02.283Z,27.5
2023-04-26T04:26:03.957Z,27.6
2023-04-26T04:27:05.622Z,27.7
2023-04-26T04:28:07.306Z,27.6
2023-04-26T04:29:09.475Z,27.6
2023-04-26T04:30:11.205Z,27.6
2023-04-26T04:31:13.223Z,27.7
2023-04-26T04:32:15.119Z,27.6
2023-04-26T04:33:16.732Z,27.7
2023-04-26T04:34:18.325Z,27.5
2023-04-26T04:35:19.929Z,27.5
2023-04-26T04:36:21.605Z,27.6
2023-04-26T04:37:23.204Z,27.6
2023-04-26T04:38:24.949Z,27.6
2023-04-26T04:39:26.530Z,27.7
2023-04-26T04:40:28.185Z,27.8
2023-04-26T04:41:29.793Z,27.7
2023-04-26T04:42:31.434Z,27.7
2023-04-26T04:43:33.202Z,27.8
2023-04-26T04:44:34.829Z,27.8
2023-04-26T04:45:36.410Z,27.7
2023-04-26T04:46:38.311Z,27.6
2023-04-26T04:47:40.505Z,27.6
2023-04-26T04:48:42.861Z,27.7
2023-04-26T04:49:44.492Z,27.7
2023-04-26T04:50:46.136Z,27.7
2023-04-26T04:51:47.741Z,27.6
2023-04-26T04:52:49.359Z,27.6
2023-04-26T04:53:50.983Z,27.7
2023-04-26T04:54:52.656Z,27.8
2023-04-26T04:55:54.280Z,27.8
2023-04-26T04:56:55.926Z,27.8
2023-04-26T04:57:57.506Z,27.7
2023-04-26T04:58:59.249Z,27.7
2023-04-26T05:00:00.860Z,27.7
2023-04-26T05:01:02.509Z,27.7
2023-04-26T05:02:04.288Z,27.8
2023-04-26T05:03:06.446Z,27.8
2023-04-26T05:04:08.936Z,27.8
2023-04-26T05:05:11.717Z,27.7
2023-04-26T05:06:13.671Z,27.6
2023-04-26T05:07:15.263Z,27.7
2023-04-26T05:08:16.977Z,27.8
2023-04-26T05:09:18.669Z,27.9
2023-04-26T05:10:20.279Z,27.8
2023-04-26T05:11:21.914Z,27.8
2023-04-26T05:12:23.464Z,27.9
2023-04-26T05:13:25.089Z,28
2023-04-26T05:14:26.739Z,28
2023-04-26T05:15:28.340Z,28.1
2023-04-26T05:16:30.043Z,28
2023-04-26T05:17:32.005Z,28
2023-04-26T05:18:33.874Z,28
2023-04-26T05:19:35.483Z,28
2023-04-26T05:20:37.096Z,27.7
2023-04-26T05:21:38.720Z,27.6
2023-04-26T05:22:40.351Z,27.7
2023-04-26T05:23:42.066Z,27.8
2023-04-26T05:24:43.686Z,27.8
2023-04-26T05:25:45.326Z,27.9
2023-04-26T05:26:47.194Z,27.8
2023-04-26T05:27:48.850Z,27.7
2023-04-26T05:28:50.514Z,27.6
2023-04-26T05:29:52.305Z,27.7
2023-04-26T05:30:53.883Z,27.8
2023-04-26T05:31:55.829Z,27.8
2023-04-26T05:32:57.779Z,27.9
2023-04-26T05:33:59.511Z,28
2023-04-26T05:35:01.135Z,27.9
2023-04-26T05:36:02.803Z,28
2023-04-26T05:37:04.501Z,28
2023-04-26T05:38:09.029Z,28
2023-04-26T05:39:10.761Z,27.9
2023-04-26T05:40:12.585Z,27.9
2023-04-26T05:41:14.249Z,27.8
2023-04-26T05:42:18.286Z,27.8
2023-04-26T05:43:20.008Z,27.8
2023-04-26T05:44:21.677Z,27.7
2023-04-26T05:45:23.486Z,27.8
2023-04-26T05:46:25.242Z,27.9
2023-04-26T05:47:27.694Z,27.8
2023-04-26T05:48:29.481Z,27.8
2023-04-26T05:49:31.287Z,27.7
2023-04-26T05:50:33.011Z,27.5
2023-04-26T05:51:34.756Z,27.5
2023-04-26T05:52:36.365Z,27.5
2023-04-26T05:53:38.091Z,27.5
2023-04-26T05:54:39.749Z,27.5
2023-04-26T05:55:41.608Z,27.5
2023-04-26T05:56:43.316Z,27.5
2023-04-26T05:57:45.471Z,27.5
2023-04-26T05:58:47.681Z,27.5
2023-04-26T05:59:49.320Z,27.4
2023-04-26T06:00:51.051Z,27.6
2023-04-26T06:01:52.728Z,27.5
2023-04-26T06:02:54.779Z,27.5
2023-04-26T06:04:01.259Z,27.5
2023-04-26T06:05:05.151Z,27.6
2023-04-26T06:06:07.459Z,27.6
2023-04-26T06:07:09.165Z,27.7
2023-04-26T06:08:10.803Z,27.6
2023-04-26T06:09:12.932Z,27.4
2023-04-26T06:10:14.993Z,27.5
2023-04-26T06:11:16.796Z,27.6
2023-04-26T06:12:18.461Z,27.6
2023-04-26T06:13:20.224Z,27.7
2023-04-26T06:14:31.032Z,27.7
2023-04-26T06:15:32.796Z,27.6
2023-04-26T06:16:34.853Z,27.5
2023-04-26T06:17:37.095Z,27.6
2023-04-26T06:18:39.229Z,27.6
2023-04-26T06:19:40.886Z,27.5
2023-04-26T06:20:42.549Z,27.6
2023-04-26T06:21:44.298Z,27.5
2023-04-26T06:22:46.061Z,27.5
2023-04-26T06:23:47.793Z,27.5
2023-04-26T06:24:49.526Z,27.5
2023-04-26T06:25:51.590Z,27.4
2023-04-26T06:26:53.392Z,27.3
2023-04-26T06:27:55.008Z,27.3
2023-04-26T06:28:56.734Z,27.4
2023-04-26T06:29:58.439Z,27.3
2023-04-26T06:31:00.465Z,27.3
2023-04-26T06:32:02.686Z,27.3
2023-04-26T06:33:04.509Z,27.1
2023-04-26T06:34:07.933Z,27.1
2023-04-26T06:35:10.232Z,27.1
2023-04-26T06:36:11.925Z,27.2
2023-04-26T06:37:13.710Z,27.3
2023-04-26T06:38:15.435Z,27.3
2023-04-26T06:39:17.077Z,27.4
2023-04-26T06:40:19.050Z,27.3
2023-04-26T06:41:20.705Z,27.3
2023-04-26T06:42:22.889Z,27.2
2023-04-26T06:43:24.572Z,27.2
2023-04-26T06:44:26.270Z,27.2
2023-04-26T06:45:28.019Z,27.2
2023-04-26T06:46:30.303Z,27.2
2023-04-26T06:47:32.412Z,27.2
2023-04-26T06:48:34.632Z,27.5
2023-04-26T06:49:36.885Z,27.4
2023-04-26T06:50:38.524Z,27.6
2023-04-26T06:51:40.628Z,27.7
2023-04-26T06:52:42.566Z,27.7
2023-04-26T06:53:47.796Z,27.8
2023-04-26T06:54:57.836Z,27.8
2023-04-26T06:55:59.665Z,27.9
2023-04-26T06:57:01.811Z,27.8
2023-04-26T06:58:03.784Z,27.8
2023-04-26T06:59:05.731Z,27.8
2023-04-26T07:00:07.756Z,27.8
2023-04-26T07:01:09.675Z,27.8
2023-04-26T07:02:12.843Z,27.9
2023-04-26T07:03:18.117Z,27.9
2023-04-26T07:04:20.795Z,27.9
2023-04-26T07:05:23.709Z,27.8
2023-04-26T07:06:25.769Z,27.7
2023-04-26T07:07:27.504Z,27.6
2023-04-26T07:08:29.444Z,27.6
2023-04-26T07:09:31.289Z,27.6
2023-04-26T07:10:34.583Z,27.5
2023-04-26T07:11:36.475Z,27.5
2023-04-26T07:12:38.297Z,27.5
2023-04-26T07:13:40.337Z,27.4
2023-04-26T07:14:42.095Z,27.4
2023-04-26T07:15:44.052Z,27.4
2023-04-26T07:16:46.522Z,27.4
2023-04-26T07:17:48.716Z,27.3
2023-04-26T07:18:50.856Z,27.3
2023-04-26T07:19:56.040Z,27.2
2023-04-26T07:20:58.004Z,27.1
2023-04-26T07:21:59.747Z,27
2023-04-26T07:23:01.512Z,27
2023-04-26T07:24:03.216Z,27
2023-04-26T07:25:05.321Z,27
2023-04-26T07:26:07.103Z,27
2023-04-26T07:27:08.827Z,26.8
2023-04-26T07:28:10.638Z,26.8
2023-04-26T07:29:12.689Z,26.7
2023-04-26T07:30:14.440Z,26.7
2023-04-26T07:31:16.397Z,26.7
2023-04-26T07:32:18.252Z,26.6
2023-04-26T07:33:20.257Z,26.6
2023-04-26T07:34:22.753Z,26.8
2023-04-26T07:35:24.509Z,26.8
2023-04-26T07:36:26.177Z,26.9
2023-04-26T07:37:28.017Z,26.8
2023-04-26T07:38:29.886Z,26.7
2023-04-26T07:39:31.841Z,26.9
2023-04-26T07:40:33.749Z,26.8
2023-04-26T07:41:35.529Z,26.6
2023-04-26T07:42:37.360Z,26.6
2023-04-26T07:43:39.228Z,26.6
2023-04-26T07:44:41.240Z,26.5
2023-04-26T07:45:43.226Z,26.4
2023-04-26T07:46:45.181Z,26.3
2023-04-26T07:47:47.132Z,26.3
2023-04-26T07:48:49.178Z,26.3
2023-04-26T07:49:51.396Z,26.4
2023-04-26T07:50:53.408Z,26.5
2023-04-26T07:51:55.152Z,26.3
2023-04-26T07:52:56.951Z,26.4
2023-04-26T07:53:58.840Z,26.3
2023-04-26T07:55:00.608Z,26.3
2023-04-26T07:56:02.560Z,26.4
2023-04-26T07:57:04.404Z,26.5
2023-04-26T07:58:06.196Z,26.3
2023-04-26T07:59:11.578Z,26.2
2023-04-26T08:00:13.548Z,26.1
2023-04-26T08:01:17.140Z,26.1
2023-04-26T08:02:33.152Z,26
2023-04-26T08:03:47.666Z,26
2023-04-26T08:04:50.577Z,26
2023-04-26T08:05:53.940Z,25.9
2023-04-26T08:06:56.691Z,25.8
2023-04-26T08:07:58.541Z,25.8
2023-04-26T08:09:00.397Z,25.8
2023-04-26T08:10:02.720Z,25.7
2023-04-26T08:11:04.603Z,25.6
2023-04-26T08:12:06.552Z,25.6
2023-04-26T08:13:08.491Z,25.5
2023-04-26T08:14:10.456Z,25.5
2023-04-26T08:15:12.398Z,25.5
2023-04-26T08:16:14.320Z,25.5
2023-04-26T08:17:16.230Z,25.4
2023-04-26T08:18:18.212Z,25.3
2023-04-26T08:19:20.043Z,25.3
2023-04-26T08:20:21.865Z,25.2
2023-04-26T08:21:24.060Z,25.3
2023-04-26T08:22:25.968Z,25.2
2023-04-26T08:23:27.811Z,25.2
2023-04-26T08:24:29.656Z,25.2
2023-04-26T08:25:31.541Z,25.2
2023-04-26T08:26:33.594Z,25.2
2023-04-26T08:27:35.334Z,25.2
2023-04-26T08:28:37.120Z,25.3
2023-04-26T08:29:38.936Z,25.4
2023-04-26T08:30:40.780Z,25.3
2023-04-26T08:31:43.250Z,25.5
2023-04-26T08:32:45.213Z,25.3
2023-04-26T08:33:47.211Z,25.3
2023-04-26T08:34:49.038Z,25.3
2023-04-26T08:35:50.929Z,25.3
2023-04-26T08:36:52.934Z,25.5
2023-04-26T08:37:54.810Z,25.4
2023-04-26T08:38:59.582Z,25.4
2023-04-26T08:40:01.406Z,25.4
2023-04-26T08:41:03.264Z,25.4
2023-04-26T08:42:05.100Z,25.3
2023-04-26T08:43:06.949Z,25.3
2023-04-26T08:44:08.703Z,25.3
2023-04-26T08:45:10.461Z,25.3
2023-04-26T08:46:12.312Z,25.2
2023-04-26T08:47:14.270Z,25.2
2023-04-26T08:48:16.380Z,25.3
2023-04-26T08:49:18.260Z,25.4
2023-04-26T08:50:20.098Z,25.3
2023-04-26T08:51:22.056Z,25.3
2023-04-26T08:52:24.100Z,25.3
2023-04-26T08:53:25.971Z,25.3
2023-04-26T08:54:27.811Z,25.2
2023-04-26T08:55:29.577Z,25.3
2023-04-26T08:56:31.509Z,25.2
2023-04-26T08:57:33.277Z,25.2
2023-04-26T08:58:35.178Z,25.2
2023-04-26T08:59:37.082Z,25.2
2023-04-26T09:00:38.836Z,25.2
2023-04-26T09:01:40.684Z,25.2
2023-04-26T09:02:43.241Z,25.2
2023-04-26T09:03:45.686Z,25.1
2023-04-26T09:04:48.400Z,25.2
2023-04-26T09:05:50.677Z,25.1
2023-04-26T09:06:52.474Z,25.2
2023-04-26T09:07:54.593Z,25.2
2023-04-26T09:08:56.270Z,25.1
2023-04-26T09:09:57.988Z,25.1
2023-04-26T09:10:59.836Z,25.1
2023-04-26T09:12:01.646Z,25.1
2023-04-26T09:13:03.462Z,25.2
2023-04-26T09:14:05.328Z,25.1
2023-04-26T09:15:07.175Z,25.1
2023-04-26T09:16:09.173Z,25.1
2023-04-26T09:17:11.173Z,25.1
2023-04-26T09:18:13.136Z,25.2
2023-04-26T09:19:14.988Z,25.3
2023-04-26T09:20:18.082Z,25.1
2023-04-26T09:21:21.061Z,25.2
2023-04-26T09:22:22.883Z,25.1
2023-04-26T09:23:24.797Z,25
2023-04-26T09:24:26.797Z,25.1
2023-04-26T09:25:28.531Z,25
2023-04-26T09:26:30.280Z,25.1
2023-04-26T09:27:32.252Z,25
2023-04-26T09:28:33.954Z,25
2023-04-26T09:29:35.730Z,25
2023-04-26T09:30:37.372Z,25
2023-04-26T09:31:39.622Z,24.9
2023-04-26T09:32:41.941Z,24.9
2023-04-26T09:33:43.810Z,24.9
2023-04-26T09:34:45.684Z,24.9
2023-04-26T09:35:47.677Z,24.9
2023-04-26T09:36:49.652Z,24.9
2023-04-26T09:38:01.340Z,24.8
2023-04-26T09:39:14.983Z,24.8
2023-04-26T09:40:16.815Z,24.8
2023-04-26T09:41:18.913Z,24.8
2023-04-26T09:42:20.771Z,24.8
2023-04-26T09:43:23.008Z,24.8
2023-04-26T09:44:24.983Z,24.7
2023-04-26T09:45:26.849Z,24.7
2023-04-26T09:46:28.806Z,24.7
2023-04-26T09:47:31.268Z,24.7
2023-04-26T09:48:33.103Z,24.8
2023-04-26T09:49:35.177Z,24.7
2023-04-26T09:50:37.109Z,24.7
2023-04-26T09:51:39.191Z,24.6
2023-04-26T09:52:41.256Z,24.7
2023-04-26T09:53:43.275Z,24.7
2023-04-26T09:54:45.368Z,24.7
2023-04-26T09:55:47.179Z,24.7
2023-04-26T09:56:49.034Z,24.7
2023-04-26T09:57:50.985Z,24.6
2023-04-26T09:58:53.471Z,24.6
2023-04-26T09:59:56.114Z,24.7
2023-04-26T10:00:58.036Z,24.6
2023-04-26T10:01:59.919Z,24.6
2023-04-26T10:03:01.943Z,24.5
2023-04-26T10:04:04.142Z,24.4
2023-04-26T10:05:06.377Z,24.3
2023-04-26T10:06:08.240Z,24.4
2023-04-26T10:07:10.053Z,24.3
2023-04-26T10:08:12.083Z,24.3
2023-04-26T10:09:13.725Z,24.2
2023-04-26T10:10:15.622Z,24.1
2023-04-26T10:11:17.385Z,24.1
2023-04-26T10:12:19.336Z,24
2023-04-26T10:13:21.178Z,24
2023-04-26T10:14:23.030Z,24
2023-04-26T10:15:24.852Z,24
2023-04-26T10:16:26.874Z,24
2023-04-26T10:17:28.902Z,24
2023-04-26T10:18:30.909Z,24.2
2023-04-26T10:19:32.697Z,24.2
2023-04-26T10:20:34.773Z,24.2
2023-04-26T10:21:36.810Z,24.1
2023-04-26T10:22:38.925Z,24
2023-04-26T10:23:40.921Z,24.1
2023-04-26T10:24:42.759Z,24.1
2023-04-26T10:25:44.651Z,24.1
2023-04-26T10:26:46.361Z,24.2
2023-04-26T10:27:48.153Z,24.2
2023-04-26T10:28:56.249Z,24.2
2023-04-26T10:30:05.018Z,24.1
2023-04-26T10:31:06.836Z,24.1
2023-04-26T10:32:09.120Z,24.1
2023-04-26T10:33:11.534Z,24.1
2023-04-26T10:34:13.564Z,24.1
2023-04-26T10:35:15.511Z,24.1
2023-04-26T10:36:17.558Z,24
2023-04-26T10:37:19.422Z,24
2023-04-26T10:38:21.362Z,24.2
2023-04-26T10:39:23.240Z,24.1
2023-04-26T10:40:25.168Z,24.2
2023-04-26T10:41:27.127Z,24.2
2023-04-26T10:42:28.970Z,24.1
2023-04-26T10:43:30.784Z,24.1
2023-04-26T10:44:32.657Z,24
2023-04-26T10:45:34.611Z,24
2023-04-26T10:46:37.232Z,24.1
2023-04-26T10:47:39.465Z,24.1
2023-04-26T10:48:41.491Z,24
2023-04-26T10:49:43.452Z,24
2023-04-26T10:50:45.211Z,24
2023-04-26T10:51:47.057Z,24.2
2023-04-26T10:52:48.893Z,24.1
2023-04-26T10:53:51.092Z,24
2023-04-26T10:54:54.198Z,24.1
2023-04-26T10:55:56.182Z,24
2023-04-26T10:56:58.108Z,23.9
2023-04-26T10:58:00.501Z,24
2023-04-26T10:59:04.891Z,23.9
2023-04-26T11:00:41.696Z,23.9
2023-04-26T11:01:43.630Z,23.9
2023-04-26T11:02:45.863Z,23.9
2023-04-26T11:03:48.391Z,23.8
2023-04-26T11:04:50.777Z,23.9
2023-04-26T11:05:52.880Z,23.7
2023-04-26T11:06:54.756Z,23.8
2023-04-26T11:07:56.574Z,23.8
2023-04-26T11:08:58.523Z,23.8
2023-04-26T11:10:00.425Z,23.7
2023-04-26T11:11:02.323Z,23.9
2023-04-26T11:12:04.409Z,23.8
2023-04-26T11:13:06.219Z,23.8
2023-04-26T11:14:08.215Z,23.9
2023-04-26T11:15:10.057Z,23.8
2023-04-26T11:16:12.238Z,23.8
2023-04-26T11:17:14.415Z,23.8
2023-04-26T11:18:16.694Z,23.9
2023-04-26T11:19:18.537Z,23.8
2023-04-26T11:20:20.330Z,23.9
2023-04-26T11:21:22.261Z,23.7
2023-04-26T11:22:24.628Z,23.7
2023-04-26T11:23:26.381Z,23.6
2023-04-26T11:24:28.211Z,23.7
2023-04-26T11:25:30.184Z,23.7
2023-04-26T11:26:32.137Z,23.8
2023-04-26T11:27:34.121Z,23.8
2023-04-26T11:28:36.207Z,23.7
2023-04-26T11:29:37.988Z,23.7
2023-04-26T11:30:39.952Z,23.7
2023-04-26T11:31:41.855Z,23.8
2023-04-26T11:32:43.765Z,23.7
2023-04-26T11:33:50.736Z,23.6
2023-04-26T11:34:52.749Z,23.5
2023-04-26T11:35:54.667Z,23.4
2023-04-26T11:36:56.688Z,23.3
2023-04-26T11:37:58.617Z,23.2
2023-04-26T11:39:00.455Z,23.3
2023-04-26T11:40:02.418Z,23.3
2023-04-26T11:41:04.403Z,23.2
2023-04-26T11:42:06.152Z,23.2
2023-04-26T11:43:08.056Z,23.3
2023-04-26T11:44:10.054Z,23.3
2023-04-26T11:45:11.907Z,23.3
2023-04-26T11:46:13.989Z,23.4
2023-04-26T11:47:15.895Z,23.3
2023-04-26T11:48:17.881Z,23.4
2023-04-26T11:49:19.904Z,23.3
2023-04-26T11:50:21.652Z,23.3
2023-04-26T11:51:23.608Z,23.3
2023-04-26T11:52:25.453Z,23.3
2023-04-26T11:53:27.333Z,23.3
2023-04-26T11:54:29.226Z,23.2
2023-04-26T11:55:30.952Z,23.2
2023-04-26T11:56:32.739Z,23.1
2023-04-26T11:57:34.569Z,23.1
2023-04-26T11:58:36.467Z,23.1
2023-04-26T11:59:38.307Z,23.1
2023-04-26T12:00:40.121Z,23.1
2023-04-26T12:01:43.336Z,23.2
2023-04-26T12:02:45.501Z,23.1
2023-04-26T12:03:47.938Z,23
2023-04-26T12:04:50.620Z,23.1
2023-04-26T12:05:53.058Z,23
2023-04-26T12:06:54.695Z,22.9
2023-04-26T12:07:56.403Z,22.9
2023-04-26T12:08:58.226Z,22.7
2023-04-26T12:10:01.206Z,22.7
2023-04-26T12:11:03.157Z,22.7
2023-04-26T12:12:05.015Z,22.8
2023-04-26T12:13:06.836Z,22.8
2023-04-26T12:14:08.978Z,22.9
2023-04-26T12:15:13.803Z,22.9
2023-04-26T12:16:26.029Z,22.9
2023-04-26T12:17:29.690Z,23
2023-04-26T12:18:32.174Z,22.9
2023-04-26T12:19:33.936Z,22.9
2023-04-26T12:20:36.184Z,22.9
2023-04-26T12:21:38.045Z,22.8
2023-04-26T12:22:39.900Z,22.9
2023-04-26T12:23:41.640Z,22.9
2023-04-26T12:24:43.525Z,22.8
2023-04-26T12:25:45.226Z,22.8
2023-04-26T12:26:47.299Z,22.9
2023-04-26T12:27:49.144Z,22.7
2023-04-26T12:28:51.092Z,22.7
2023-04-26T12:29:53.374Z,22.6
2023-04-26T12:30:55.175Z,22.6
2023-04-26T12:31:57.404Z,22.5
2023-04-26T12:33:16.865Z,22.6
2023-04-26T12:34:19.904Z,22.5
2023-04-26T12:35:21.847Z,22.5
2023-04-26T12:36:23.619Z,22.6
2023-04-26T12:37:25.552Z,22.6
2023-04-26T12:38:27.498Z,22.5
2023-04-26T12:39:29.330Z,22.5
2023-04-26T12:40:31.199Z,22.7
2023-04-26T12:41:33.062Z,22.6
2023-04-26T12:42:34.926Z,22.5
2023-04-26T12:43:36.875Z,22.6
2023-04-26T12:44:38.680Z,22.5
2023-04-26T12:45:40.507Z,22.5
2023-04-26T12:46:42.487Z,22.4
2023-04-26T12:47:44.886Z,22.4
2023-04-26T12:48:47.015Z,22.5
2023-04-26T12:49:48.869Z,22.4
2023-04-26T12:50:51.639Z,22.5
2023-04-26T12:51:53.480Z,22.5
2023-04-26T12:52:55.360Z,22.4
2023-04-26T12:53:57.206Z,22.3
2023-04-26T12:54:58.948Z,22.3
2023-04-26T12:56:00.893Z,22.3
2023-04-26T12:57:02.751Z,22.3
2023-04-26T12:58:04.930Z,22.3
2023-04-26T12:59:06.874Z,22.4
2023-04-26T13:00:08.829Z,22.2
2023-04-26T13:01:10.857Z,22.2
2023-04-26T13:02:12.910Z,22.4
2023-04-26T13:03:15.703Z,22.4
2023-04-26T13:04:18.210Z,22.4
2023-04-26T13:05:20.737Z,22.3
2023-04-26T13:06:22.568Z,22.5
2023-04-26T13:07:24.941Z,22.4
2023-04-26T13:08:26.767Z,22.3
2023-04-26T13:09:28.734Z,22.3
2023-04-26T13:10:30.482Z,22.4
2023-04-26T13:11:32.916Z,22.5
2023-04-26T13:12:34.851Z,22.4
2023-04-26T13:13:44.801Z,22.4
2023-04-26T13:14:47.111Z,22.4
2023-04-26T13:15:49.070Z,22.4
2023-04-26T13:16:51.104Z,22.3
2023-04-26T13:17:53.089Z,22.3
2023-04-26T13:18:54.916Z,22.3
2023-04-26T13:19:57.075Z,22.2
2023-04-26T13:20:58.917Z,22.2
2023-04-26T13:22:00.950Z,22.3
2023-04-26T13:23:02.686Z,22.3
2023-04-26T13:24:04.577Z,22.3
2023-04-26T13:25:06.444Z,22.3
2023-04-26T13:26:08.275Z,22.2
2023-04-26T13:27:10.286Z,22.4
2023-04-26T13:28:12.613Z,22.3
2023-04-26T13:29:15.264Z,22.3
2023-04-26T13:30:17.072Z,22.3
2023-04-26T13:31:18.872Z,22.3
2023-04-26T13:32:21.062Z,22.3
2023-04-26T13:33:22.962Z,22.3
2023-04-26T13:34:24.905Z,22.4
2023-04-26T13:35:26.766Z,22.4
2023-04-26T13:36:28.618Z,22.4
2023-04-26T13:37:30.428Z,22.4
2023-04-26T13:38:33.366Z,22.3
2023-04-26T13:39:35.300Z,22.3
2023-04-26T13:40:37.142Z,22.3
2023-04-26T13:41:38.847Z,22.4
2023-04-26T13:42:40.836Z,22.3
2023-04-26T13:43:42.654Z,22.3
2023-04-26T13:44:44.511Z,22.3
2023-04-26T13:45:46.500Z,22.3
2023-04-26T13:46:48.440Z,22.3
2023-04-26T13:47:50.557Z,22.3
2023-04-26T13:48:52.445Z,22.3
2023-04-26T13:49:54.403Z,22.3
2023-04-26T13:50:56.357Z,22.2
2023-04-26T13:51:58.300Z,22.3